Time,TemperatureF,DewpointF,PressureIn,WindDirection,WindDirectionDegrees,WindSpeedMPH,WindSpeedGustMPH,Humidity,HourlyPrecipIn,Conditions,Clouds,dailyrainin,SolarRadiationWatts/m^2,SoftwareType,DateUTC
2013-02-23 00:00:00,38.0,35.3,30.15,SSW,208,2.0,6.0,90,0.00,,---,0.00,0.00,VWS V14.01,2013-02-23 08:00:00,
2013-02-23 00:05:00,37.9,35.2,30.15,WSW,237,1.0,6.0,90,0.00,,---,0.00,0.00,VWS V14.01,2013-02-23 08:05:00,
2013-02-23 00:10:00,37.8,35.1,30.15,SW,220,0.0,4.0,90,0.00,,---,0.00,0.00,VWS V14.01,2013-02-23 08:10:00,
2013-02-23 00:15:00,37.7,35.0,30.16,SSW,200,2.0,6.0,90,0.00,,---,0.00,0.00,VWS V14.01,2013-02-23 08:15:00,
2013-02-23 00:20:00,37.7,35.3,30.15,SSW,198,5.0,7.0,91,0.00,,---,0.00,0.00,VWS V14.01,2013-02-23 08:20:00,
2013-02-23 00:25:00,37.5,35.1,30.15,South,188,3.0,7.0,91,0.00,,---,0.00,0.00,VWS V14.01,2013-02-23 08:25:00,
2013-02-23 00:30:00,37.4,35.3,30.15,South,188,0.0,9.0,92,0.00,,---,0.00,0.00,VWS V14.01,2013-02-23 08:30:00,
2013-02-23 00:35:00,37.3,35.2,30.15,SSW,202,0.0,9.0,92,0.00,,---,0.00,0.00,VWS V14.01,2013-02-23 08:35:00,
2013-02-23 00:40:00,37.1,35.0,30.15,South,182,5.0,6.0,92,0.00,,---,0.00,0.00,VWS V14.01,2013-02-23 08:40:00,
2013-02-23 00:45:00,36.9,34.8,30.15,SW,219,2.0,6.0,92,0.00,,---,0.00,0.00,VWS V14.01,2013-02-23 08:45:00,
2013-02-23 00:50:00,36.8,35.0,30.16,SSW,211,5.0,8.0,93,0.00,,---,0.00,0.00,VWS V14.01,2013-02-23 08:50:00,
2013-02-23 00:55:00,36.8,35.0,30.16,South,180,1.0,9.0,93,0.00,,---,0.00,0.00,VWS V14.01,2013-02-23 08:55:00,
2013-02-23 01:00:00,36.9,35.1,30.16,SSE,167,0.0,5.0,93,0.00,,---,0.00,0.00,VWS V14.01,2013-02-23 09:00:00,
2013-02-23 01:05:00,36.9,35.1,30.16,SSE,164,3.0,5.0,93,0.00,,---,0.00,0.00,VWS V14.01,2013-02-23 09:05:00,
2013-02-23 01:10:00,36.8,35.0,30.16,SSE,163,1.0,3.0,93,0.00,,---,0.00,0.00,VWS V14.01,2013-02-23 09:10:00,
2013-02-23 01:15:00,36.7,34.9,30.17,SSW,198,2.0,4.0,93,0.00,,---,0.00,0.00,VWS V14.01,2013-02-23 09:15:00,
2013-02-23 01:20:00,36.7,34.9,30.17,SSW,198,2.0,4.0,93,0.00,,---,0.00,0.00,VWS V14.01,2013-02-23 09:20:00,
2013-02-23 01:25:00,36.6,34.8,30.16,SSW,198,0.0,4.0,93,0.00,,---,0.00,0.00,VWS V14.01,2013-02-23 09:25:00,
2013-02-23 01:30:00,36.5,34.7,30.17,SSW,198,1.0,3.0,93,0.00,,---,0.00,0.00,VWS V14.01,2013-02-23 09:30:00,
2013-02-23 01:35:00,36.4,34.6,30.17,SSW,198,1.0,4.0,93,0.00,,---,0.00,0.00,VWS V14.01,2013-02-23 09:35:00,
2013-02-23 01:40:00,36.3,34.7,30.17,SSW,198,0.0,2.0,94,0.00,,---,0.00,0.00,VWS V14.01,2013-02-23 09:40:00,
2013-02-23 01:45:00,36.3,34.7,30.17,SSW,195,1.0,4.0,94,0.00,,---,0.00,0.00,VWS V14.01,2013-02-23 09:45:00,
2013-02-23 01:50:00,36.5,34.9,30.17,SSW,198,0.0,3.0,94,0.00,,---,0.00,0.00,VWS V14.01,2013-02-23 09:50:00,
2013-02-23 01:55:00,36.6,35.0,30.18,SSW,198,0.0,3.0,94,0.00,,---,0.00,0.00,VWS V14.01,2013-02-23 09:55:00,
2013-02-23 02:00:00,36.8,35.2,30.18,South,177,2.0,6.0,94,0.00,,---,0.00,0.00,VWS V14.01,2013-02-23 10:00:00,
2013-02-23 02:05:00,37.1,35.5,30.18,SW,219,1.0,6.0,94,0.00,,---,0.00,0.00,VWS V14.01,2013-02-23 10:05:00,
2013-02-23 02:10:00,37.3,35.7,30.18,SW,225,4.0,4.0,94,0.00,,---,0.00,0.00,VWS V14.01,2013-02-23 10:10:00,
2013-02-23 02:15:00,37.6,36.0,30.18,SW,217,3.0,5.0,94,0.00,,---,0.00,0.00,VWS V14.01,2013-02-23 10:15:00,
2013-02-23 02:20:00,37.8,36.0,30.18,WSW,239,3.0,5.0,93,0.00,,---,0.00,0.00,VWS V14.01,2013-02-23 10:20:00,
2013-02-23 02:25:00,38.0,35.9,30.18,SSW,194,1.0,7.0,92,0.00,,---,0.00,0.00,VWS V14.01,2013-02-23 10:25:00,
2013-02-23 02:30:00,38.1,36.0,30.18,SSE,166,3.0,6.0,92,0.00,,---,0.00,0.00,VWS V14.01,2013-02-23 10:30:00,
2013-02-23 02:35:00,38.0,35.9,30.18,South,172,3.0,6.0,92,0.00,,---,0.00,0.00,VWS V14.01,2013-02-23 10:35:00,
2013-02-23 02:40:00,37.9,35.8,30.18,South,179,2.0,5.0,92,0.00,,---,0.00,0.00,VWS V14.01,2013-02-23 10:40:00,
2013-02-23 02:45:00,37.8,35.7,30.18,South,173,2.0,7.0,92,0.00,,---,0.00,0.00,VWS V14.01,2013-02-23 10:45:00,
2013-02-23 02:50:00,37.6,35.5,30.17,SSW,198,4.0,7.0,92,0.00,,---,0.00,0.00,VWS V14.01,2013-02-23 10:50:00,
2013-02-23 02:55:00,37.3,35.5,30.18,SSW,198,3.0,7.0,93,0.00,,---,0.00,0.00,VWS V14.01,2013-02-23 10:55:00,
2013-02-23 03:00:00,37.2,35.4,30.18,South,191,2.0,6.0,93,0.00,,---,0.00,0.00,VWS V14.01,2013-02-23 11:00:00,
2013-02-23 03:05:00,37.0,35.2,30.18,SSW,200,0.0,6.0,93,0.00,,---,0.00,0.00,VWS V14.01,2013-02-23 11:05:00,
2013-02-23 03:10:00,36.9,35.1,30.19,SSW,200,2.0,2.0,93,0.00,,---,0.00,0.00,VWS V14.01,2013-02-23 11:10:00,
2013-02-23 03:15:00,36.7,34.9,30.19,SSW,207,3.0,3.0,93,0.00,,---,0.00,0.00,VWS V14.01,2013-02-23 11:15:00,
2013-02-23 03:20:00,36.7,35.1,30.19,South,189,3.0,5.0,94,0.00,,---,0.00,0.00,VWS V14.01,2013-02-23 11:20:00,
2013-02-23 03:25:00,36.8,35.2,30.19,South,189,2.0,5.0,94,0.00,,---,0.00,0.00,VWS V14.01,2013-02-23 11:25:00,
2013-02-23 03:30:00,36.8,35.0,30.19,South,189,2.0,3.0,93,0.00,,---,0.00,0.00,VWS V14.01,2013-02-23 11:30:00,
2013-02-23 03:35:00,36.7,34.9,30.19,SSW,192,2.0,6.0,93,0.00,,---,0.00,0.00,VWS V14.01,2013-02-23 11:35:00,
2013-02-23 03:40:00,36.7,34.9,30.20,SSW,192,2.0,4.0,93,0.00,,---,0.00,0.00,VWS V14.01,2013-02-23 11:40:00,
2013-02-23 03:45:00,36.8,35.0,30.20,SSW,193,0.0,6.0,93,0.00,,---,0.00,0.00,VWS V14.01,2013-02-23 11:45:00,
2013-02-23 03:50:00,36.8,35.2,30.20,SSW,193,1.0,3.0,94,0.00,,---,0.00,0.00,VWS V14.01,2013-02-23 11:50:00,
2013-02-23 03:55:00,36.8,35.2,30.20,SSW,193,2.0,3.0,94,0.00,,---,0.00,0.00,VWS V14.01,2013-02-23 11:55:00,
2013-02-23 04:00:00,36.8,35.2,30.20,SSE,161,0.0,5.0,94,0.00,,---,0.00,0.00,VWS V14.01,2013-02-23 12:00:00,
2013-02-23 04:05:00,36.8,35.2,30.21,SSW,196,3.0,5.0,94,0.00,,---,0.00,0.00,VWS V14.01,2013-02-23 12:05:00,
2013-02-23 04:10:00,36.7,35.1,30.20,SSW,196,2.0,3.0,94,0.00,,---,0.00,0.00,VWS V14.01,2013-02-23 12:10:00,
2013-02-23 04:15:00,36.7,35.1,30.21,SSW,194,3.0,5.0,94,0.00,,---,0.00,0.00,VWS V14.01,2013-02-23 12:15:00,
2013-02-23 04:20:00,36.8,35.2,30.21,SSW,194,1.0,4.0,94,0.00,,---,0.00,0.00,VWS V14.01,2013-02-23 12:20:00,
2013-02-23 04:25:00,36.8,35.0,30.21,SSW,198,0.0,5.0,93,0.00,,---,0.00,0.00,VWS V14.01,2013-02-23 12:25:00,
2013-02-23 04:30:00,36.9,35.1,30.21,SSW,213,0.0,4.0,93,0.00,,---,0.00,0.00,VWS V14.01,2013-02-23 12:30:00,
2013-02-23 04:35:00,36.9,35.3,30.22,SSW,196,3.0,7.0,94,0.00,,---,0.00,0.00,VWS V14.01,2013-02-23 12:35:00,
2013-02-23 04:40:00,37.0,35.4,30.22,SW,224,5.0,6.0,94,0.00,,---,0.00,0.00,VWS V14.01,2013-02-23 12:40:00,
2013-02-23 04:45:00,37.0,35.4,30.22,SSW,206,6.0,7.0,94,0.00,,---,0.00,0.00,VWS V14.01,2013-02-23 12:45:00,
2013-02-23 04:50:00,37.0,35.4,30.22,SSW,200,1.0,5.0,94,0.00,,---,0.00,0.00,VWS V14.01,2013-02-23 12:50:00,
2013-02-23 04:55:00,37.0,35.4,30.22,South,188,0.0,6.0,94,0.00,,---,0.00,0.00,VWS V14.01,2013-02-23 12:55:00,
2013-02-23 05:00:00,37.0,35.4,30.22,SW,221,3.0,6.0,94,0.00,,---,0.00,0.00,VWS V14.01,2013-02-23 13:00:00,
2013-02-23 05:05:00,37.0,35.4,30.23,SW,229,4.0,7.0,94,0.00,,---,0.00,0.00,VWS V14.01,2013-02-23 13:05:00,
2013-02-23 05:10:00,37.0,35.4,30.22,SSW,192,8.0,8.0,94,0.01,,---,0.01,0.00,VWS V14.01,2013-02-23 13:10:00,
2013-02-23 05:15:00,37.0,35.4,30.22,SW,224,0.0,8.0,94,0.01,,---,0.01,0.00,VWS V14.01,2013-02-23 13:15:00,
2013-02-23 05:20:00,37.0,35.7,30.23,SW,230,1.0,9.0,95,0.01,,---,0.01,0.00,VWS V14.01,2013-02-23 13:20:00,
2013-02-23 05:25:00,36.9,35.6,30.22,South,177,4.0,9.0,95,0.01,,---,0.01,0.00,VWS V14.01,2013-02-23 13:25:00,
2013-02-23 05:30:00,36.9,35.6,30.22,SW,230,0.0,6.0,95,0.01,,---,0.01,0.00,VWS V14.01,2013-02-23 13:30:00,
2013-02-23 05:35:00,36.8,35.5,30.22,SW,235,1.0,7.0,95,0.01,,---,0.01,0.00,VWS V14.01,2013-02-23 13:35:00,
2013-02-23 05:40:00,36.7,35.4,30.23,SSW,200,3.0,6.0,95,0.01,,---,0.01,0.00,VWS V14.01,2013-02-23 13:40:00,
2013-02-23 05:45:00,36.7,35.4,30.23,WSW,240,1.0,7.0,95,0.01,,---,0.01,0.00,VWS V14.01,2013-02-23 13:45:00,
2013-02-23 05:50:00,36.8,35.5,30.23,SW,226,1.0,6.0,95,0.01,,---,0.01,0.00,VWS V14.01,2013-02-23 13:50:00,
2013-02-23 05:55:00,36.9,35.6,30.24,SW,232,2.0,6.0,95,0.01,,---,0.01,0.00,VWS V14.01,2013-02-23 13:55:00,
2013-02-23 06:00:00,36.9,35.6,30.25,WSW,247,0.0,5.0,95,0.01,,---,0.01,0.00,VWS V14.01,2013-02-23 14:00:00,
2013-02-23 06:05:00,36.9,35.6,30.25,WSW,248,0.0,5.0,95,0.01,,---,0.01,0.00,VWS V14.01,2013-02-23 14:05:00,
2013-02-23 06:10:00,37.0,35.7,30.25,SW,223,1.0,4.0,95,0.01,,---,0.01,0.00,VWS V14.01,2013-02-23 14:10:00,
2013-02-23 06:15:00,37.0,35.7,30.25,SW,219,0.0,4.0,95,0.02,,---,0.02,0.00,VWS V14.01,2013-02-23 14:15:00,
2013-02-23 06:20:00,37.0,35.7,30.25,SW,221,1.0,3.0,95,0.01,,---,0.02,0.00,VWS V14.01,2013-02-23 14:20:00,
2013-02-23 06:25:00,37.0,35.7,30.26,SSW,196,2.0,6.0,95,0.01,,---,0.02,0.00,VWS V14.01,2013-02-23 14:25:00,
2013-02-23 06:30:00,37.0,35.7,30.25,SSW,211,0.0,4.0,95,0.01,,---,0.02,0.00,VWS V14.01,2013-02-23 14:30:00,
2013-02-23 06:35:00,36.9,35.6,30.26,SSW,207,2.0,5.0,95,0.01,,---,0.02,0.00,VWS V14.01,2013-02-23 14:35:00,
2013-02-23 06:40:00,36.8,35.5,30.26,SSW,202,3.0,5.0,95,0.01,,---,0.02,0.00,VWS V14.01,2013-02-23 14:40:00,
2013-02-23 06:45:00,36.7,35.4,30.26,South,169,1.0,5.0,95,0.01,,---,0.02,0.00,VWS V14.01,2013-02-23 14:45:00,
2013-02-23 06:50:00,36.7,35.4,30.26,SSW,202,1.0,6.0,95,0.01,,---,0.02,0.00,VWS V14.01,2013-02-23 14:50:00,
2013-02-23 06:55:00,36.7,35.4,30.27,SSW,206,1.0,6.0,95,0.01,,---,0.02,0.00,VWS V14.01,2013-02-23 14:55:00,
2013-02-23 07:00:00,36.7,35.4,30.27,SSW,211,1.0,3.0,95,0.02,,---,0.03,0.00,VWS V14.01,2013-02-23 15:00:00,
2013-02-23 07:05:00,36.7,35.7,30.27,SSW,213,2.0,4.0,96,0.03,,---,0.04,0.00,VWS V14.01,2013-02-23 15:05:00,
2013-02-23 07:10:00,36.7,35.7,30.27,SSW,211,2.0,4.0,96,0.03,,---,0.04,5.00,VWS V14.01,2013-02-23 15:10:00,
2013-02-23 07:15:00,36.6,35.6,30.27,South,174,2.0,6.0,96,0.03,,---,0.04,9.00,VWS V14.01,2013-02-23 15:15:00,
2013-02-23 07:20:00,36.6,35.6,30.27,WSW,238,1.0,4.0,96,0.02,,---,0.04,7.00,VWS V14.01,2013-02-23 15:20:00,
2013-02-23 07:25:00,36.6,35.6,30.27,South,184,0.0,4.0,96,0.02,,---,0.04,14.00,VWS V14.01,2013-02-23 15:25:00,
2013-02-23 07:30:00,36.7,35.7,30.28,SW,236,3.0,4.0,96,0.02,,---,0.04,19.00,VWS V14.01,2013-02-23 15:30:00,
2013-02-23 07:35:00,36.7,35.7,30.27,South,178,4.0,4.0,96,0.02,,---,0.04,16.00,VWS V14.01,2013-02-23 15:35:00,
2013-02-23 07:40:00,36.7,35.7,30.27,South,171,3.0,6.0,96,0.02,,---,0.04,21.00,VWS V14.01,2013-02-23 15:40:00,
2013-02-23 07:45:00,36.7,35.7,30.28,SSW,195,4.0,6.0,96,0.02,,---,0.04,26.00,VWS V14.01,2013-02-23 15:45:00,
2013-02-23 07:50:00,36.7,35.7,30.28,South,175,0.0,7.0,96,0.02,,---,0.04,32.00,VWS V14.01,2013-02-23 15:50:00,
2013-02-23 07:55:00,36.8,35.8,30.29,South,172,2.0,7.0,96,0.02,,---,0.04,32.00,VWS V14.01,2013-02-23 15:55:00,
2013-02-23 08:00:00,36.8,35.8,30.29,SSW,192,4.0,6.0,96,0.02,,---,0.04,70.00,VWS V14.01,2013-02-23 16:00:00,
2013-02-23 08:05:00,36.9,35.9,30.29,South,187,2.0,6.0,96,0.02,,---,0.04,93.00,VWS V14.01,2013-02-23 16:05:00,
2013-02-23 08:10:00,37.1,36.1,30.30,SW,217,5.0,5.0,96,0.00,,---,0.04,42.00,VWS V14.01,2013-02-23 16:10:00,
2013-02-23 08:15:00,37.2,36.2,30.30,SSE,165,6.0,6.0,96,0.00,,---,0.04,46.00,VWS V14.01,2013-02-23 16:15:00,
2013-02-23 08:20:00,37.2,36.2,30.30,SSW,204,1.0,7.0,96,0.00,,---,0.04,49.00,VWS V14.01,2013-02-23 16:20:00,
2013-02-23 08:25:00,37.2,36.4,30.30,South,169,3.0,7.0,97,0.00,,---,0.04,53.00,VWS V14.01,2013-02-23 16:25:00,
2013-02-23 08:30:00,37.3,36.5,30.31,South,182,4.0,8.0,97,0.00,,---,0.04,63.00,VWS V14.01,2013-02-23 16:30:00,
2013-02-23 08:35:00,37.3,36.5,30.31,SSE,157,6.0,8.0,97,0.00,,---,0.04,58.00,VWS V14.01,2013-02-23 16:35:00,
2013-02-23 08:40:00,37.3,36.3,30.31,SSE,155,2.0,6.0,96,0.00,,---,0.04,46.00,VWS V14.01,2013-02-23 16:40:00,
2013-02-23 08:45:00,37.3,36.3,30.32,South,185,1.0,6.0,96,0.00,,---,0.04,51.00,VWS V14.01,2013-02-23 16:45:00,
2013-02-23 08:50:00,37.4,36.4,30.32,SSW,198,1.0,4.0,96,0.00,,---,0.04,81.00,VWS V14.01,2013-02-23 16:50:00,
2013-02-23 08:55:00,37.6,36.6,30.33,SSW,211,6.0,6.0,96,0.00,,---,0.04,105.00,VWS V14.01,2013-02-23 16:55:00,
2013-02-23 09:00:00,37.7,36.7,30.33,SSW,205,3.0,10.0,96,0.00,,---,0.04,95.00,VWS V14.01,2013-02-23 17:00:00,
2013-02-23 09:05:00,37.8,36.8,30.33,SSE,167,5.0,10.0,96,0.00,,---,0.04,95.00,VWS V14.01,2013-02-23 17:05:00,
2013-02-23 09:10:00,37.8,36.8,30.33,South,180,5.0,10.0,96,0.00,,---,0.04,130.00,VWS V14.01,2013-02-23 17:10:00,
2013-02-23 09:15:00,38.0,37.0,30.33,SSW,209,6.0,10.0,96,0.00,,---,0.04,142.00,VWS V14.01,2013-02-23 17:15:00,
2013-02-23 09:20:00,38.1,37.1,30.33,SSW,201,4.0,10.0,96,0.00,,---,0.04,135.00,VWS V14.01,2013-02-23 17:20:00,
2013-02-23 09:25:00,38.2,37.2,30.33,South,174,2.0,10.0,96,0.00,,---,0.04,186.00,VWS V14.01,2013-02-23 17:25:00,
2013-02-23 09:30:00,38.5,37.5,30.34,SSW,200,4.0,6.0,96,0.00,,---,0.04,334.00,VWS V14.01,2013-02-23 17:30:00,
2013-02-23 09:35:00,39.0,38.0,30.34,South,190,10.0,12.0,96,0.00,,---,0.04,287.00,VWS V14.01,2013-02-23 17:35:00,
2013-02-23 09:40:00,39.2,38.2,30.35,South,175,7.0,7.0,96,0.00,,---,0.04,169.00,VWS V14.01,2013-02-23 17:40:00,
2013-02-23 09:45:00,39.0,37.7,30.35,South,173,4.0,13.0,95,0.00,,---,0.04,179.00,VWS V14.01,2013-02-23 17:45:00,
2013-02-23 09:50:00,39.1,37.8,30.35,South,175,2.0,6.0,95,0.00,,---,0.04,462.00,VWS V14.01,2013-02-23 17:50:00,
2013-02-23 09:55:00,39.8,38.5,30.35,SSW,203,3.0,9.0,95,0.00,,---,0.04,561.00,VWS V14.01,2013-02-23 17:55:00,
2013-02-23 10:00:00,40.5,39.2,30.35,SSW,200,5.0,10.0,95,0.00,,---,0.04,682.00,VWS V14.01,2013-02-23 18:00:00,
2013-02-23 10:05:00,40.8,39.2,30.35,SSE,163,4.0,12.0,94,0.00,,---,0.04,417.00,VWS V14.01,2013-02-23 18:05:00,
2013-02-23 10:10:00,40.7,38.8,30.35,SW,214,6.0,11.0,93,0.00,,---,0.04,225.00,VWS V14.01,2013-02-23 18:10:00,
2013-02-23 10:15:00,40.5,38.6,30.35,South,190,4.0,11.0,93,0.00,,---,0.04,179.00,VWS V14.01,2013-02-23 18:15:00,
2013-02-23 10:20:00,40.3,38.4,30.36,WSW,242,2.0,9.0,93,0.00,,---,0.04,60.00,VWS V14.01,2013-02-23 18:20:00,
2013-02-23 10:25:00,40.0,38.1,30.36,SW,236,4.0,9.0,93,0.01,,---,0.05,39.00,VWS V14.01,2013-02-23 18:25:00,
2013-02-23 10:30:00,39.9,38.0,30.36,SSW,209,4.0,7.0,93,0.02,,---,0.06,47.00,VWS V14.01,2013-02-23 18:30:00,
2013-02-23 10:35:00,39.7,38.1,30.37,SW,234,0.0,8.0,94,0.04,,---,0.08,44.00,VWS V14.01,2013-02-23 18:35:00,
2013-02-23 10:40:00,39.6,38.0,30.37,SW,234,1.0,4.0,94,0.06,,---,0.10,56.00,VWS V14.01,2013-02-23 18:40:00,
2013-02-23 10:45:00,39.4,37.8,30.37,SW,231,0.0,5.0,94,0.07,,---,0.11,107.00,VWS V14.01,2013-02-23 18:45:00,
2013-02-23 10:50:00,39.4,38.1,30.37,SW,231,0.0,0.0,95,0.08,,---,0.12,111.00,VWS V14.01,2013-02-23 18:50:00,
2013-02-23 10:55:00,39.6,38.3,30.37,SSW,198,2.0,3.0,95,0.08,,---,0.12,181.00,VWS V14.01,2013-02-23 18:55:00,
2013-02-23 11:00:00,39.9,38.8,30.36,South,176,0.0,4.0,96,0.09,,---,0.13,207.00,VWS V14.01,2013-02-23 19:00:00,
2013-02-23 11:05:00,40.3,39.2,30.36,South,182,3.0,6.0,96,0.09,,---,0.13,348.00,VWS V14.01,2013-02-23 19:05:00,
2013-02-23 11:10:00,40.7,39.4,30.36,South,178,4.0,6.0,95,0.09,,---,0.13,267.00,VWS V14.01,2013-02-23 19:10:00,
2013-02-23 11:15:00,41.0,39.7,30.37,SSW,193,4.0,6.0,95,0.09,,---,0.13,294.00,VWS V14.01,2013-02-23 19:15:00,
2013-02-23 11:20:00,41.4,40.1,30.36,South,186,2.0,5.0,95,0.09,,---,0.13,283.00,VWS V14.01,2013-02-23 19:20:00,
2013-02-23 11:25:00,41.7,40.4,30.37,SSW,203,5.0,7.0,95,0.09,,---,0.13,220.00,VWS V14.01,2013-02-23 19:25:00,
2013-02-23 11:30:00,41.7,40.1,30.36,SE,126,2.0,5.0,94,0.08,,---,0.13,315.00,VWS V14.01,2013-02-23 19:30:00,
2013-02-23 11:35:00,41.9,40.0,30.37,SW,228,1.0,5.0,93,0.08,,---,0.13,229.00,VWS V14.01,2013-02-23 19:35:00,
2013-02-23 11:40:00,42.4,40.5,30.37,WSW,258,2.0,4.0,93,0.04,,---,0.13,322.00,VWS V14.01,2013-02-23 19:40:00,
2013-02-23 11:45:00,42.9,40.7,30.37,SSW,201,7.0,9.0,92,0.04,,---,0.13,780.00,VWS V14.01,2013-02-23 19:45:00,
2013-02-23 11:50:00,43.2,39.9,30.37,South,172,4.0,7.0,88,0.01,,---,0.13,281.00,VWS V14.01,2013-02-23 19:50:00,
2013-02-23 11:55:00,43.2,39.9,30.36,SSW,211,2.0,11.0,88,0.01,,---,0.13,914.00,VWS V14.01,2013-02-23 19:55:00,
2013-02-23 12:00:00,43.6,40.0,30.36,SE,144,5.0,9.0,87,0.01,,---,0.13,374.00,VWS V14.01,2013-02-23 20:00:00,
2013-02-23 12:05:00,43.9,40.6,30.37,West,260,7.0,9.0,88,0.01,,---,0.13,244.00,VWS V14.01,2013-02-23 20:05:00,
2013-02-23 12:10:00,44.0,40.1,30.37,SW,227,2.0,9.0,86,0.00,,---,0.13,236.00,VWS V14.01,2013-02-23 20:10:00,
2013-02-23 12:15:00,44.1,39.9,30.36,SW,216,2.0,9.0,85,0.00,,---,0.13,403.00,VWS V14.01,2013-02-23 20:15:00,
2013-02-23 12:20:00,44.4,40.2,30.36,WSW,237,2.0,5.0,85,0.00,,---,0.13,580.00,VWS V14.01,2013-02-23 20:20:00,
2013-02-23 12:25:00,44.8,39.7,30.36,South,172,4.0,6.0,82,0.00,,---,0.13,359.00,VWS V14.01,2013-02-23 20:25:00,
2013-02-23 12:30:00,44.6,39.1,30.36,SSW,207,1.0,5.0,81,0.00,,---,0.13,118.00,VWS V14.01,2013-02-23 20:30:00,
2013-02-23 12:35:00,44.4,39.6,30.36,South,189,0.0,6.0,83,0.00,,---,0.13,69.00,VWS V14.01,2013-02-23 20:35:00,
2013-02-23 12:40:00,44.2,39.4,30.36,South,189,0.0,3.0,83,0.00,,---,0.13,46.00,VWS V14.01,2013-02-23 20:40:00,
2013-02-23 12:45:00,43.3,37.9,30.37,North,5,12.0,18.0,81,0.00,,---,0.13,47.00,VWS V14.01,2013-02-23 20:45:00,
2013-02-23 12:50:00,40.9,36.5,30.38,NNW,335,15.0,17.0,84,0.00,,---,0.13,40.00,VWS V14.01,2013-02-23 20:50:00,
2013-02-23 12:55:00,38.3,35.1,30.38,North,360,4.0,18.0,88,0.02,,---,0.15,42.00,VWS V14.01,2013-02-23 20:55:00,
2013-02-23 13:00:00,36.8,33.9,30.37,NNW,345,5.0,9.0,89,0.04,,---,0.17,53.00,VWS V14.01,2013-02-23 21:00:00,
2013-02-23 13:05:00,36.1,34.0,30.37,NNW,338,0.0,9.0,92,0.06,,---,0.19,49.00,VWS V14.01,2013-02-23 21:05:00,
2013-02-23 13:10:00,35.9,34.1,30.37,West,281,4.0,5.0,93,0.09,,---,0.22,40.00,VWS V14.01,2013-02-23 21:10:00,
2013-02-23 13:15:00,36.0,34.4,30.36,ESE,115,2.0,5.0,94,0.11,,---,0.24,109.00,VWS V14.01,2013-02-23 21:15:00,
2013-02-23 13:20:00,36.0,34.4,30.37,SW,214,0.0,3.0,94,0.11,,---,0.24,146.00,VWS V14.01,2013-02-23 21:20:00,
2013-02-23 13:25:00,36.1,34.8,30.37,SSW,213,0.0,3.0,95,0.12,,---,0.25,174.00,VWS V14.01,2013-02-23 21:25:00,
2013-02-23 13:30:00,36.8,35.8,30.37,SSW,205,3.0,5.0,96,0.12,,---,0.25,649.00,VWS V14.01,2013-02-23 21:30:00,
2013-02-23 13:35:00,37.7,36.7,30.37,SSW,194,2.0,5.0,96,0.13,,---,0.26,564.00,VWS V14.01,2013-02-23 21:35:00,
2013-02-23 13:40:00,38.4,37.6,30.37,ESE,108,2.0,4.0,97,0.14,,---,0.27,585.00,VWS V14.01,2013-02-23 21:40:00,
2013-02-23 13:45:00,39.2,38.2,30.37,SE,135,2.0,4.0,96,0.14,,---,0.27,192.00,VWS V14.01,2013-02-23 21:45:00,
2013-02-23 13:50:00,39.7,38.7,30.37,SE,135,1.0,3.0,96,0.14,,---,0.27,229.00,VWS V14.01,2013-02-23 21:50:00,
2013-02-23 13:55:00,40.2,38.9,30.36,SE,135,1.0,3.0,95,0.15,,---,0.28,454.00,VWS V14.01,2013-02-23 21:55:00,
2013-02-23 14:00:00,40.7,39.4,30.36,SE,135,0.0,3.0,95,0.12,,---,0.28,267.00,VWS V14.01,2013-02-23 22:00:00,
2013-02-23 14:05:00,41.1,39.8,30.36,ESE,103,1.0,6.0,95,0.12,,---,0.28,642.00,VWS V14.01,2013-02-23 22:05:00,
2013-02-23 14:10:00,41.5,39.9,30.37,SE,143,3.0,5.0,94,0.08,,---,0.28,512.00,VWS V14.01,2013-02-23 22:10:00,
2013-02-23 14:15:00,41.9,40.3,30.37,East,96,4.0,5.0,94,0.09,,---,0.29,708.00,VWS V14.01,2013-02-23 22:15:00,
2013-02-23 14:20:00,41.8,39.7,30.37,NE,42,1.0,2.0,92,0.05,,---,0.29,153.00,VWS V14.01,2013-02-23 22:20:00,
2013-02-23 14:25:00,41.2,38.5,30.38,North,355,5.0,11.0,90,0.05,,---,0.29,56.00,VWS V14.01,2013-02-23 22:25:00,
2013-02-23 14:30:00,40.1,37.4,30.38,North,11,2.0,5.0,90,0.05,,---,0.30,47.00,VWS V14.01,2013-02-23 22:30:00,
2013-02-23 14:35:00,39.6,37.2,30.38,North,11,0.0,5.0,91,0.06,,---,0.31,65.00,VWS V14.01,2013-02-23 22:35:00,
2013-02-23 14:40:00,39.3,37.2,30.38,North,11,0.0,0.0,92,0.06,,---,0.32,181.00,VWS V14.01,2013-02-23 22:40:00,
2013-02-23 14:45:00,39.4,37.5,30.38,North,11,0.0,1.0,93,0.06,,---,0.32,264.00,VWS V14.01,2013-02-23 22:45:00,
2013-02-23 14:50:00,40.0,38.4,30.38,North,11,0.0,1.0,94,0.05,,---,0.32,571.00,VWS V14.01,2013-02-23 22:50:00,
2013-02-23 14:55:00,40.7,38.8,30.39,North,11,1.0,3.0,93,0.05,,---,0.32,522.00,VWS V14.01,2013-02-23 22:55:00,
2013-02-23 15:00:00,41.2,39.6,30.38,NNE,12,0.0,3.0,94,0.04,,---,0.32,297.00,VWS V14.01,2013-02-23 23:00:00,
2013-02-23 15:05:00,41.6,39.7,30.39,SW,214,2.0,3.0,93,0.04,,---,0.32,476.00,VWS V14.01,2013-02-23 23:05:00,
2013-02-23 15:10:00,42.3,40.2,30.39,SSE,168,2.0,3.0,92,0.04,,---,0.32,466.00,VWS V14.01,2013-02-23 23:10:00,
2013-02-23 15:15:00,42.8,40.4,30.39,SSE,164,1.0,5.0,91,0.04,,---,0.32,522.00,VWS V14.01,2013-02-23 23:15:00,
2013-02-23 15:20:00,43.1,40.1,30.39,SSE,161,2.0,6.0,89,0.03,,---,0.32,185.00,VWS V14.01,2013-02-23 23:20:00,
2013-02-23 15:25:00,42.9,39.9,30.39,SSE,165,4.0,6.0,89,0.03,,---,0.32,209.00,VWS V14.01,2013-02-23 23:25:00,
2013-02-23 15:30:00,43.0,40.6,30.38,SSE,165,2.0,4.0,91,0.03,,---,0.32,459.00,VWS V14.01,2013-02-23 23:30:00,
2013-02-23 15:35:00,43.2,40.8,30.39,SSE,167,2.0,6.0,91,0.03,,---,0.32,388.00,VWS V14.01,2013-02-23 23:35:00,
2013-02-23 15:40:00,43.3,40.8,30.39,East,89,1.0,3.0,91,0.01,,---,0.32,359.00,VWS V14.01,2013-02-23 23:40:00,
2013-02-23 15:45:00,43.4,40.7,30.40,ESE,119,1.0,3.0,90,0.01,,---,0.32,329.00,VWS V14.01,2013-02-23 23:45:00,
2013-02-23 15:50:00,43.1,40.1,30.40,SE,134,1.0,4.0,89,0.00,,---,0.32,141.00,VWS V14.01,2013-02-23 23:50:00,
2013-02-23 15:55:00,42.9,40.2,30.40,SE,134,0.0,4.0,90,0.00,,---,0.32,183.00,VWS V14.01,2013-02-23 23:55:00,
2013-02-23 16:00:00,43.0,40.6,30.40,ESE,117,2.0,4.0,91,0.00,,---,0.32,207.00,VWS V14.01,2013-02-24 00:00:00,
2013-02-23 16:05:00,43.0,40.6,30.40,SE,132,2.0,4.0,91,0.00,,---,0.32,165.00,VWS V14.01,2013-02-24 00:05:00,
2013-02-23 16:10:00,43.0,40.3,30.40,SE,140,0.0,5.0,90,0.00,,---,0.32,114.00,VWS V14.01,2013-02-24 00:10:00,
2013-02-23 16:15:00,42.8,40.1,30.40,SE,144,1.0,5.0,90,0.00,,---,0.32,211.00,VWS V14.01,2013-02-24 00:15:00,
2013-02-23 16:20:00,42.9,40.5,30.40,SE,136,2.0,4.0,91,0.00,,---,0.32,248.00,VWS V14.01,2013-02-24 00:20:00,
2013-02-23 16:25:00,43.0,40.6,30.40,South,175,3.0,4.0,91,0.00,,---,0.32,211.00,VWS V14.01,2013-02-24 00:25:00,
2013-02-23 16:30:00,43.3,40.6,30.41,South,190,0.0,5.0,90,0.00,,---,0.32,167.00,VWS V14.01,2013-02-24 00:30:00,
2013-02-23 16:35:00,43.4,41.0,30.41,South,190,3.0,5.0,91,0.00,,---,0.32,91.00,VWS V14.01,2013-02-24 00:35:00,
2013-02-23 16:40:00,43.1,40.4,30.41,South,190,2.0,3.0,90,0.00,,---,0.32,62.00,VWS V14.01,2013-02-24 00:40:00,
2013-02-23 16:45:00,42.8,40.1,30.41,South,190,2.0,3.0,90,0.00,,---,0.32,86.00,VWS V14.01,2013-02-24 00:45:00,
2013-02-23 16:50:00,42.6,39.9,30.41,South,190,1.0,4.0,90,0.00,,---,0.32,77.00,VWS V14.01,2013-02-24 00:50:00,
2013-02-23 16:55:00,42.4,40.0,30.41,South,190,2.0,4.0,91,0.00,,---,0.32,62.00,VWS V14.01,2013-02-24 00:55:00,
2013-02-23 17:00:00,42.2,39.8,30.41,South,190,0.0,3.0,91,0.00,,---,0.32,70.00,VWS V14.01,2013-02-24 01:00:00,
2013-02-23 17:05:00,42.1,40.0,30.41,South,190,0.0,3.0,92,0.00,,---,0.32,86.00,VWS V14.01,2013-02-24 01:05:00,
2013-02-23 17:10:00,42.1,40.0,30.41,South,190,0.0,3.0,92,0.00,,---,0.32,42.00,VWS V14.01,2013-02-24 01:10:00,
2013-02-23 17:15:00,42.0,39.8,30.41,South,190,0.0,3.0,92,0.00,,---,0.32,46.00,VWS V14.01,2013-02-24 01:15:00,
2013-02-23 17:20:00,42.0,39.8,30.41,South,190,2.0,4.0,92,0.00,,---,0.32,49.00,VWS V14.01,2013-02-24 01:20:00,
2013-02-23 17:25:00,41.9,39.8,30.41,South,190,2.0,5.0,92,0.00,,---,0.32,46.00,VWS V14.01,2013-02-24 01:25:00,
2013-02-23 17:30:00,41.8,39.9,30.41,South,190,2.0,4.0,93,0.00,,---,0.32,28.00,VWS V14.01,2013-02-24 01:30:00,
2013-02-23 17:35:00,41.8,39.9,30.42,South,190,3.0,4.0,93,0.00,,---,0.32,23.00,VWS V14.01,2013-02-24 01:35:00,
2013-02-23 17:40:00,41.7,39.8,30.42,South,190,1.0,3.0,93,0.00,,---,0.32,14.00,VWS V14.01,2013-02-24 01:40:00,
2013-02-23 17:45:00,41.6,39.7,30.42,South,190,0.0,3.0,93,0.00,,---,0.32,11.00,VWS V14.01,2013-02-24 01:45:00,
2013-02-23 17:50:00,41.6,39.7,30.42,South,190,0.0,3.0,93,0.00,,---,0.32,0.00,VWS V14.01,2013-02-24 01:50:00,
2013-02-23 17:55:00,41.5,39.6,30.42,South,190,0.0,3.0,93,0.00,,---,0.32,0.00,VWS V14.01,2013-02-24 01:55:00,
2013-02-23 18:00:00,41.4,39.5,30.42,South,190,0.0,3.0,93,0.00,,---,0.32,0.00,VWS V14.01,2013-02-24 02:00:00,
2013-02-23 18:05:00,41.3,39.4,30.42,South,190,1.0,3.0,93,0.00,,---,0.32,0.00,VWS V14.01,2013-02-24 02:05:00,
2013-02-23 18:10:00,41.2,39.3,30.43,South,190,0.0,0.0,93,0.00,,---,0.32,0.00,VWS V14.01,2013-02-24 02:10:00,
2013-02-23 18:15:00,41.0,39.1,30.43,South,190,2.0,2.0,93,0.00,,---,0.32,0.00,VWS V14.01,2013-02-24 02:15:00,
2013-02-23 18:20:00,40.8,38.9,30.43,South,190,0.0,1.0,93,0.00,,---,0.32,0.00,VWS V14.01,2013-02-24 02:20:00,
2013-02-23 18:25:00,40.7,38.8,30.43,South,190,0.0,1.0,93,0.00,,---,0.32,0.00,VWS V14.01,2013-02-24 02:25:00,
2013-02-23 18:30:00,40.5,38.6,30.43,South,190,0.0,0.0,93,0.00,,---,0.32,0.00,VWS V14.01,2013-02-24 02:30:00,
2013-02-23 18:35:00,40.2,38.3,30.44,South,190,0.0,0.0,93,0.00,,---,0.32,0.00,VWS V14.01,2013-02-24 02:35:00,
2013-02-23 18:39:00,39.9,38.0,30.44,South,190,0.0,0.0,93,0.00,,---,0.32,0.00,VWS V14.01,2013-02-24 02:39:00,
2013-02-23 18:40:00,40.0,38.1,30.44,South,190,0.0,0.0,93,0.00,,---,0.32,0.00,VWS V14.01,2013-02-24 02:40:00,
2013-02-23 18:44:00,39.6,37.8,30.44,South,190,0.0,0.0,93,0.00,,---,0.32,0.00,VWS V14.01,2013-02-24 02:44:00,
2013-02-23 18:49:00,39.3,37.7,30.45,South,190,0.0,0.0,94,0.00,,---,0.32,0.00,VWS V14.01,2013-02-24 02:49:00,
2013-02-23 18:50:00,39.4,37.5,30.44,South,190,0.0,0.0,93,0.00,,---,0.32,0.00,VWS V14.01,2013-02-24 02:50:00,
2013-02-23 18:54:00,38.9,37.3,30.45,South,190,0.0,0.0,94,0.00,,---,0.32,0.00,VWS V14.01,2013-02-24 02:54:00,
2013-02-23 18:59:00,38.3,36.7,30.45,South,190,1.0,2.0,94,0.00,,---,0.32,0.00,VWS V14.01,2013-02-24 02:59:00,
2013-02-23 19:00:00,38.6,37.0,30.45,South,190,0.0,0.0,94,0.00,,---,0.32,0.00,VWS V14.01,2013-02-24 03:00:00,
2013-02-23 19:04:00,37.8,36.2,30.45,South,190,2.0,2.0,94,0.00,,---,0.32,0.00,VWS V14.01,2013-02-24 03:04:00,
2013-02-23 19:09:00,37.3,36.0,30.45,South,190,0.0,2.0,95,0.00,,---,0.32,0.00,VWS V14.01,2013-02-24 03:09:00,
2013-02-23 19:10:00,37.6,36.0,30.45,South,190,1.0,3.0,94,0.00,,---,0.32,0.00,VWS V14.01,2013-02-24 03:10:00,
2013-02-23 19:14:00,37.0,35.7,30.45,South,190,1.0,2.0,95,0.00,,---,0.32,0.00,VWS V14.01,2013-02-24 03:14:00,
2013-02-23 19:19:00,36.8,35.5,30.45,South,190,0.0,0.0,95,0.00,,---,0.32,0.00,VWS V14.01,2013-02-24 03:19:00,
2013-02-23 19:20:00,37.0,37.0,30.45,South,190,0.0,2.0,100,0.00,,---,0.32,0.00,VWS V14.01,2013-02-24 03:20:00,
2013-02-23 19:24:00,36.7,35.4,30.45,South,190,0.0,1.0,95,0.00,,---,0.32,0.00,VWS V14.01,2013-02-24 03:24:00,
2013-02-23 19:29:00,36.4,35.1,30.45,South,190,1.0,2.0,95,0.00,,---,0.32,0.00,VWS V14.01,2013-02-24 03:29:00,
2013-02-23 19:30:00,36.6,35.3,30.45,South,190,0.0,1.0,95,0.00,,---,0.32,0.00,VWS V14.01,2013-02-24 03:30:00,
2013-02-23 19:34:00,36.2,35.2,30.45,South,190,0.0,2.0,96,0.00,,---,0.32,0.00,VWS V14.01,2013-02-24 03:34:00,
2013-02-23 19:39:00,36.1,35.1,30.45,South,190,0.0,0.0,96,0.00,,---,0.32,0.00,VWS V14.01,2013-02-24 03:39:00,
2013-02-23 19:40:00,36.2,34.9,30.45,South,190,0.0,2.0,95,0.00,,---,0.32,0.00,VWS V14.01,2013-02-24 03:40:00,
2013-02-23 19:44:00,35.9,34.9,30.45,South,190,0.0,0.0,96,0.00,,---,0.32,0.00,VWS V14.01,2013-02-24 03:44:00,
2013-02-23 19:49:00,35.9,34.9,30.45,South,190,0.0,1.0,96,0.00,,---,0.32,0.00,VWS V14.01,2013-02-24 03:49:00,
2013-02-23 19:50:00,35.9,34.9,30.45,South,190,0.0,2.0,96,0.00,,---,0.32,0.00,VWS V14.01,2013-02-24 03:50:00,
2013-02-23 19:54:00,35.9,34.9,30.46,South,190,0.0,1.0,96,0.00,,---,0.32,0.00,VWS V14.01,2013-02-24 03:54:00,
2013-02-23 19:59:00,35.9,34.9,30.46,South,190,0.0,0.0,96,0.00,,---,0.32,0.00,VWS V14.01,2013-02-24 03:59:00,
2013-02-23 20:00:00,35.9,34.9,30.46,South,190,0.0,1.0,96,0.00,,---,0.32,0.00,VWS V14.01,2013-02-24 04:00:00,
2013-02-23 20:04:00,35.5,34.5,30.46,South,190,2.0,2.0,96,0.00,,---,0.32,0.00,VWS V14.01,2013-02-24 04:04:00,
2013-02-23 20:09:00,35.1,34.1,30.46,South,190,0.0,2.0,96,0.00,,---,0.32,0.00,VWS V14.01,2013-02-24 04:09:00,
2013-02-23 20:10:00,35.3,34.3,30.46,South,190,0.0,2.0,96,0.00,,---,0.32,0.00,VWS V14.01,2013-02-24 04:10:00,
2013-02-23 20:14:00,34.9,33.9,30.46,South,190,0.0,2.0,96,0.00,,---,0.32,0.00,VWS V14.01,2013-02-24 04:14:00,
2013-02-23 20:19:00,34.7,33.7,30.46,South,190,0.0,0.0,96,0.00,,---,0.32,0.00,VWS V14.01,2013-02-24 04:19:00,
2013-02-23 20:20:00,34.7,33.7,30.46,South,190,0.0,2.0,96,0.00,,---,0.32,0.00,VWS V14.01,2013-02-24 04:20:00,
2013-02-23 20:24:00,34.7,33.7,30.46,South,190,0.0,0.0,96,0.00,,---,0.32,0.00,VWS V14.01,2013-02-24 04:24:00,
2013-02-23 20:29:00,34.7,33.7,30.46,South,190,0.0,1.0,96,0.00,,---,0.32,0.00,VWS V14.01,2013-02-24 04:29:00,
2013-02-23 20:30:00,34.7,33.7,30.46,South,190,0.0,0.0,96,0.00,,---,0.32,0.00,VWS V14.01,2013-02-24 04:30:00,
2013-02-23 20:34:00,34.7,33.7,30.46,South,190,0.0,1.0,96,0.00,,---,0.32,0.00,VWS V14.01,2013-02-24 04:34:00,
2013-02-23 20:39:00,34.6,33.6,30.46,South,190,0.0,0.0,96,0.00,,---,0.32,0.00,VWS V14.01,2013-02-24 04:39:00,
2013-02-23 20:40:00,34.7,33.7,30.46,South,190,0.0,1.0,96,0.00,,---,0.32,0.00,VWS V14.01,2013-02-24 04:40:00,
2013-02-23 20:44:00,34.4,33.4,30.46,South,190,0.0,0.0,96,0.00,,---,0.32,0.00,VWS V14.01,2013-02-24 04:44:00,
2013-02-23 20:49:00,34.2,33.2,30.46,South,190,0.0,0.0,96,0.00,,---,0.32,0.00,VWS V14.01,2013-02-24 04:49:00,
2013-02-23 20:50:00,34.3,33.3,30.46,South,190,0.0,0.0,96,0.00,,---,0.32,0.00,VWS V14.01,2013-02-24 04:50:00,
2013-02-23 20:54:00,34.1,33.1,30.46,South,190,1.0,1.0,96,0.00,,---,0.32,0.00,VWS V14.01,2013-02-24 04:54:00,
2013-02-23 20:59:00,34.1,33.1,30.47,South,190,0.0,1.0,96,0.00,,---,0.32,0.00,VWS V14.01,2013-02-24 04:59:00,
2013-02-23 21:00:00,34.2,33.2,30.47,South,190,0.0,1.0,96,0.00,,---,0.32,0.00,VWS V14.01,2013-02-24 05:00:00,
2013-02-23 21:05:00,34.0,33.2,30.47,South,190,0.0,1.0,97,0.00,,---,0.32,0.00,VWS V14.01,2013-02-24 05:05:00,
2013-02-23 21:10:00,33.8,32.8,30.47,South,190,0.0,0.0,96,0.00,,---,0.32,0.00,VWS V14.01,2013-02-24 05:10:00,
2013-02-23 21:15:00,33.9,33.1,30.47,South,190,0.0,0.0,97,0.00,,---,0.32,0.00,VWS V14.01,2013-02-24 05:15:00,
2013-02-23 21:20:00,33.9,33.1,30.47,South,190,0.0,0.0,97,0.00,,---,0.32,0.00,VWS V14.01,2013-02-24 05:20:00,
2013-02-23 21:25:00,33.5,32.7,30.47,South,190,0.0,2.0,97,0.00,,---,0.32,0.00,VWS V14.01,2013-02-24 05:25:00,
2013-02-23 21:30:00,33.5,32.7,30.47,South,190,0.0,0.0,97,0.00,,---,0.32,0.00,VWS V14.01,2013-02-24 05:30:00,
2013-02-23 21:35:00,33.5,32.7,30.47,South,190,0.0,0.0,97,0.00,,---,0.32,0.00,VWS V14.01,2013-02-24 05:35:00,
2013-02-23 21:40:00,33.4,32.6,30.47,South,190,0.0,0.0,97,0.00,,---,0.32,0.00,VWS V14.01,2013-02-24 05:40:00,
2013-02-23 21:45:00,33.2,32.4,30.47,South,190,0.0,0.0,97,0.00,,---,0.32,0.00,VWS V14.01,2013-02-24 05:45:00,
2013-02-23 21:50:00,33.3,32.5,30.47,South,190,0.0,0.0,97,0.00,,---,0.32,0.00,VWS V14.01,2013-02-24 05:50:00,
2013-02-23 21:55:00,33.6,32.8,30.47,South,190,0.0,0.0,97,0.00,,---,0.32,0.00,VWS V14.01,2013-02-24 05:55:00,
2013-02-23 22:00:00,33.7,32.9,30.47,South,190,0.0,1.0,97,0.00,,---,0.32,0.00,VWS V14.01,2013-02-24 06:00:00,
2013-02-23 22:05:00,33.4,32.6,30.47,South,190,0.0,1.0,97,0.00,,---,0.32,0.00,VWS V14.01,2013-02-24 06:05:00,
2013-02-23 22:10:00,33.2,32.4,30.47,South,190,0.0,0.0,97,0.00,,---,0.32,0.00,VWS V14.01,2013-02-24 06:10:00,
2013-02-23 22:15:00,33.3,32.5,30.47,South,190,0.0,0.0,97,0.00,,---,0.32,0.00,VWS V14.01,2013-02-24 06:15:00,
2013-02-23 22:20:00,33.3,32.5,30.47,South,190,0.0,0.0,97,0.00,,---,0.32,0.00,VWS V14.01,2013-02-24 06:20:00,
2013-02-23 22:25:00,33.2,32.4,30.47,South,190,0.0,0.0,97,0.00,,---,0.32,0.00,VWS V14.01,2013-02-24 06:25:00,
2013-02-23 22:30:00,33.1,32.3,30.47,South,190,0.0,0.0,97,0.00,,---,0.32,0.00,VWS V14.01,2013-02-24 06:30:00,
2013-02-23 22:35:00,33.1,32.3,30.47,South,190,0.0,0.0,97,0.00,,---,0.32,0.00,VWS V14.01,2013-02-24 06:35:00,
2013-02-23 22:40:00,33.1,32.3,30.47,South,190,0.0,0.0,97,0.00,,---,0.32,0.00,VWS V14.01,2013-02-24 06:40:00,
2013-02-23 22:45:00,33.1,32.3,30.47,South,190,0.0,0.0,97,0.00,,---,0.32,0.00,VWS V14.01,2013-02-24 06:45:00,
2013-02-23 22:50:00,33.1,32.3,30.47,South,190,0.0,0.0,97,0.00,,---,0.32,0.00,VWS V14.01,2013-02-24 06:50:00,
2013-02-23 22:55:00,32.9,32.1,30.47,South,190,0.0,0.0,97,0.00,,---,0.32,0.00,VWS V14.01,2013-02-24 06:55:00,
2013-02-23 23:00:00,32.6,31.8,30.47,South,190,0.0,0.0,97,0.00,,---,0.32,0.00,VWS V14.01,2013-02-24 07:00:00,
2013-02-23 23:05:00,32.6,31.8,30.47,South,190,0.0,0.0,97,0.00,,---,0.32,0.00,VWS V14.01,2013-02-24 07:05:00,
2013-02-23 23:10:00,32.5,31.7,30.48,South,190,0.0,0.0,97,0.00,,---,0.32,0.00,VWS V14.01,2013-02-24 07:10:00,
2013-02-23 23:15:00,32.1,31.4,30.48,South,190,0.0,0.0,97,0.00,,---,0.32,0.00,VWS V14.01,2013-02-24 07:15:00,
2013-02-23 23:20:00,31.9,31.1,30.48,South,190,0.0,0.0,97,0.00,,---,0.32,0.00,VWS V14.01,2013-02-24 07:20:00,
2013-02-23 23:25:00,32.0,31.2,30.49,South,190,0.0,0.0,97,0.00,,---,0.32,0.00,VWS V14.01,2013-02-24 07:25:00,
2013-02-23 23:30:00,32.2,31.5,30.49,South,190,0.0,0.0,97,0.00,,---,0.32,0.00,VWS V14.01,2013-02-24 07:30:00,
2013-02-23 23:35:00,32.9,32.1,30.49,South,190,1.0,1.0,97,0.00,,---,0.32,0.00,VWS V14.01,2013-02-24 07:35:00,
2013-02-23 23:40:00,33.3,32.5,30.48,South,190,0.0,1.0,97,0.00,,---,0.32,0.00,VWS V14.01,2013-02-24 07:40:00,
2013-02-23 23:45:00,33.6,33.1,30.48,South,190,0.0,1.0,98,0.00,,---,0.32,0.00,VWS V14.01,2013-02-24 07:45:00,
2013-02-23 23:50:00,33.8,33.0,30.48,South,190,1.0,1.0,97,0.00,,---,0.32,0.00,VWS V14.01,2013-02-24 07:50:00,
2013-02-23 23:55:00,33.9,33.1,30.48,South,190,0.0,2.0,97,0.00,,---,0.32,0.00,VWS V14.01,2013-02-24 07:55:00,